Time;durP1;ratioP1;P1;durP2;ratioP2;P2;SDS_P1;SDS_P2;PMS_P1;PMS_P2;Temp;Humidity;BMP_temperature;BMP_pressure;BME280_temperature;BME280_humidity;BME280_pressure;Samples;Min_cycle;Max_cycle;Signal;HPM_P1;HPM_P2
2023/04/22 00:01:49;;;;;;;10.77;7.00;;;;;;;;;;4981346;28;20038;-60
2023/04/22 00:04:15;;;;;;;10.82;6.70;;;;;;;;;;4979813;28;20061;-55
2023/04/22 00:06:40;;;;;;;12.93;6.10;;;;;;;;;;4979278;28;20064;-53
2023/04/22 00:09:05;;;;;;;8.63;6.10;;;;;;;;;;4980035;28;20041;-56
2023/04/22 00:11:30;;;;;;;9.52;6.30;;;;;;;;;;4983000;28;20030;-58
2023/04/22 00:13:56;;;;;;;9.43;6.63;;;;;;;;;;4981093;28;20061;-55
2023/04/22 00:16:21;;;;;;;10.65;6.20;;;;;;;;;;4985378;28;20034;-59
2023/04/22 00:18:47;;;;;;;8.93;6.78;;;;;;;;;;4978755;28;20030;-55
2023/04/22 00:21:12;;;;;;;11.10;7.03;;;;;;;;;;4978800;28;20141;-58
2023/04/22 00:23:37;;;;;;;10.40;6.50;;;;;;;;;;4980418;28;20061;-63
2023/04/22 00:26:03;;;;;;;9.68;6.38;;;;;;;;;;4982253;28;20030;-58
2023/04/22 00:28:28;;;;;;;11.77;7.20;;;;;;;;;;4979227;28;20383;-55
2023/04/22 00:30:53;;;;;;;10.18;6.60;;;;;;;;;;4981886;28;20030;-59
2023/04/22 00:33:18;;;;;;;11.60;6.97;;;;;;;;;;4984182;28;20124;-58
2023/04/22 00:35:45;;;;;;;11.25;6.88;;;;;;;;;;4979768;28;20042;-58
2023/04/22 00:38:10;;;;;;;10.93;6.60;;;;;;;;;;4978087;28;20050;-56
2023/04/22 00:40:36;;;;;;;8.30;6.03;;;;;;;;;;4981322;28;20399;-58
2023/04/22 00:43:01;;;;;;;9.50;6.47;;;;;;;;;;4980790;28;20050;-55
2023/04/22 00:45:27;;;;;;;9.32;7.28;;;;;;;;;;4977580;28;20045;-56
2023/04/22 00:47:53;;;;;;;11.23;6.18;;;;;;;;;;4979286;28;20030;-55
2023/04/22 00:50:18;;;;;;;9.73;5.80;;;;;;;;;;4983802;28;20041;-59
2023/04/22 00:52:43;;;;;;;9.98;6.07;;;;;;;;;;4979669;28;20102;-55
2023/04/22 00:55:09;;;;;;;9.60;6.22;;;;;;;;;;4979136;28;20034;-58
2023/04/22 00:57:35;;;;;;;9.65;6.28;;;;;;;;;;4976783;28;20049;-56
2023/04/22 01:00:00;;;;;;;9.63;7.30;;;;;;;;;;4978995;28;20069;-59
2023/04/22 01:02:25;;;;;;;9.20;6.60;;;;;;;;;;4985785;28;20045;-59
2023/04/22 01:04:53;;;;;;;10.95;7.03;;;;;;;;;;4979561;28;20137;-56
2023/04/22 01:07:18;;;;;;;;;;;;;;;;;;4980969;28;20026;-56
2023/04/22 01:09:43;;;;;;;11.17;6.73;;;;;;;;;;4984610;28;19917;-57
2023/04/22 01:12:09;;;;;;;8.68;6.30;;;;;;;;;;4979915;28;20967;-56
2023/04/22 01:14:34;;;;;;;9.02;6.13;;;;;;;;;;4980243;28;20120;-55
2023/04/22 01:16:59;;;;;;;7.72;5.72;;;;;;;;;;4979543;28;20983;-57
2023/04/22 01:19:25;;;;;;;8.48;5.40;;;;;;;;;;4979340;28;20047;-56
2023/04/22 01:21:50;;;;;;;8.20;4.50;;;;;;;;;;4978583;28;20042;-57
2023/04/22 01:24:16;;;;;;;6.22;4.47;;;;;;;;;;4976219;28;20037;-54
2023/04/22 01:26:41;;;;;;;8.40;5.07;;;;;;;;;;4977998;28;20451;-57
2023/04/22 01:29:06;;;;;;;8.52;5.22;;;;;;;;;;4978868;28;20491;-60
2023/04/22 01:31:32;;;;;;;9.40;5.68;;;;;;;;;;4978482;28;20112;-54
2023/04/22 01:33:58;;;;;;;6.20;4.97;;;;;;;;;;4978428;28;20037;-56
2023/04/22 01:36:24;;;;;;;9.13;5.88;;;;;;;;;;4977367;28;20046;-56
2023/04/22 01:38:49;;;;;;;8.35;5.80;;;;;;;;;;4996543;28;20039;-57
2023/04/22 01:41:15;;;;;;;8.35;5.40;;;;;;;;;;4978654;28;20031;-56
2023/04/22 01:43:41;;;;;;;7.63;5.03;;;;;;;;;;4977275;28;20430;-54
2023/04/22 01:46:07;;;;;;;6.97;4.53;;;;;;;;;;4981617;28;20126;-57
2023/04/22 01:48:33;;;;;;;8.82;5.47;;;;;;;;;;4982990;28;20428;-55
2023/04/22 01:50:58;;;;;;;7.82;4.95;;;;;;;;;;4978834;28;20463;-56
2023/04/22 01:53:23;;;;;;;8.30;4.50;;;;;;;;;;4978094;28;20030;-56
2023/04/22 01:55:51;;;;;;;7.63;4.72;;;;;;;;;;4981616;28;20046;-58
2023/04/22 01:58:16;;;;;;;6.65;4.50;;;;;;;;;;4983746;28;21922;-57
2023/04/22 02:00:41;;;;;;;8.95;5.20;;;;;;;;;;4982663;28;20113;-54
2023/04/22 02:03:07;;;;;;;7.78;5.38;;;;;;;;;;4976557;28;20680;-57
2023/04/22 02:05:32;;;;;;;9.25;6.00;;;;;;;;;;4976717;28;20038;-55
2023/04/22 02:07:58;;;;;;;9.65;5.63;;;;;;;;;;4977741;28;20053;-53
2023/04/22 02:10:23;;;;;;;7.57;5.15;;;;;;;;;;4983115;28;20464;-56
2023/04/22 02:12:48;;;;;;;8.55;5.28;;;;;;;;;;4977033;28;20034;-57
2023/04/22 02:15:14;;;;;;;8.43;6.10;;;;;;;;;;4981516;28;20400;-56
2023/04/22 02:17:41;;;;;;;10.20;5.97;;;;;;;;;;4991395;28;20031;-59
2023/04/22 02:20:06;;;;;;;7.35;5.25;;;;;;;;;;4979558;28;20041;-58
2023/04/22 02:22:32;;;;;;;8.60;5.50;;;;;;;;;;4980400;28;20042;-57
2023/04/22 02:24:57;;;;;;;7.22;4.75;;;;;;;;;;4977764;28;20038;-54
2023/04/22 02:27:22;;;;;;;7.53;4.60;;;;;;;;;;4979526;28;20045;-55
2023/04/22 02:29:51;;;;;;;8.60;5.22;;;;;;;;;;4979775;28;20463;-59
2023/04/22 02:32:16;;;;;;;9.50;6.25;;;;;;;;;;4976874;28;20030;-53
2023/04/22 02:34:42;;;;;;;9.60;6.28;;;;;;;;;;4977262;28;20026;-56
2023/04/22 02:37:07;;;;;;;9.85;6.35;;;;;;;;;;4977359;28;20154;-57
2023/04/22 02:39:32;;;;;;;9.43;6.07;;;;;;;;;;4981918;28;20088;-53
2023/04/22 02:41:58;;;;;;;8.15;5.75;;;;;;;;;;4983089;28;20034;-57
2023/04/22 02:44:24;;;;;;;10.63;6.40;;;;;;;;;;4990256;28;20081;-55
2023/04/22 02:46:49;;;;;;;10.20;6.25;;;;;;;;;;4981272;28;20073;-55
2023/04/22 02:49:15;;;;;;;10.88;6.60;;;;;;;;;;4979313;28;20509;-57
2023/04/22 02:51:40;;;;;;;10.77;6.13;;;;;;;;;;4984951;28;20065;-59
2023/04/22 02:54:06;;;;;;;7.05;4.97;;;;;;;;;;4974994;28;20031;-53
2023/04/22 02:56:31;;;;;;;6.65;5.43;;;;;;;;;;4975774;28;20045;-55
2023/04/22 02:58:56;;;;;;;7.63;5.32;;;;;;;;;;4978215;28;20049;-57
2023/04/22 03:01:22;;;;;;;8.35;5.75;;;;;;;;;;4977421;28;20102;-56
2023/04/22 03:03:47;;;;;;;15.43;7.20;;;;;;;;;;4977189;28;20053;-55
2023/04/22 03:06:18;;;;;;;9.55;6.45;;;;;;;;;;4991997;28;20088;-57
2023/04/22 03:08:43;;;;;;;10.52;6.45;;;;;;;;;;4977244;28;20027;-57
2023/04/22 03:11:09;;;;;;;8.82;6.30;;;;;;;;;;4982093;28;20030;-56
2023/04/22 03:13:34;;;;;;;10.90;6.57;;;;;;;;;;4977009;28;20034;-55
2023/04/22 03:16:00;;;;;;;10.95;6.35;;;;;;;;;;4977245;28;20130;-55
2023/04/22 03:18:25;;;;;;;9.75;6.03;;;;;;;;;;4977233;28;20039;-60
2023/04/22 03:20:51;;;;;;;8.75;6.18;;;;;;;;;;4976932;28;20034;-59
2023/04/22 03:23:16;;;;;;;8.30;6.15;;;;;;;;;;4978707;28;20030;-55
2023/04/22 03:25:42;;;;;;;7.72;5.50;;;;;;;;;;4984031;28;20070;-56
2023/04/22 03:28:07;;;;;;;8.55;5.25;;;;;;;;;;4984852;28;20368;-55
2023/04/22 03:30:33;;;;;;;8.43;5.65;;;;;;;;;;4981612;28;20034;-57
2023/04/22 03:32:58;;;;;;;7.40;5.20;;;;;;;;;;4974320;28;20019;-55
2023/04/22 03:35:35;;;;;;;7.30;4.25;;;;;;;;;;4991768;28;20061;-57
2023/04/22 03:38:00;;;;;;;7.40;4.93;;;;;;;;;;4984355;28;20117;-57
2023/04/22 03:40:30;;;;;;;5.90;4.60;;;;;;;;;;4982147;28;20105;-52
2023/04/22 03:42:58;;;;;;;7.80;4.82;;;;;;;;;;4982988;28;20034;-54
2023/04/22 03:45:23;;;;;;;7.82;5.30;;;;;;;;;;4981351;28;20057;-57
2023/04/22 03:48:01;;;;;;;9.35;6.30;;;;;;;;;;4981514;28;20088;-57
2023/04/22 03:50:35;;;;;;;9.77;6.38;;;;;;;;;;4976745;28;20030;-53
2023/04/22 03:53:00;;;;;;;8.98;5.53;;;;;;;;;;4981803;28;20031;-55
2023/04/22 03:55:25;;;;;;;7.25;5.32;;;;;;;;;;4990811;28;20042;-56
2023/04/22 03:57:52;;;;;;;7.60;4.95;;;;;;;;;;4974581;28;20027;-56
2023/04/22 04:00:18;;;;;;;6.97;5.30;;;;;;;;;;4981228;28;20176;-57
2023/04/22 04:02:50;;;;;;;6.65;5.05;;;;;;;;;;4982326;28;20033;-55
2023/04/22 04:05:17;;;;;;;12.15;5.10;;;;;;;;;;4980920;28;20057;-54
2023/04/22 04:07:42;;;;;;;7.68;4.90;;;;;;;;;;4978295;28;20043;-57
2023/04/22 04:10:09;;;;;;;8.90;5.50;;;;;;;;;;4983172;28;20084;-57
2023/04/22 04:12:35;;;;;;;10.07;5.32;;;;;;;;;;4974316;28;20126;-56
2023/04/22 04:15:00;;;;;;;8.70;5.38;;;;;;;;;;4974625;28;20172;-56
2023/04/22 04:17:27;;;;;;;10.88;6.18;;;;;;;;;;4981199;28;20118;-58
2023/04/22 04:19:53;;;;;;;12.35;6.78;;;;;;;;;;4976966;28;20062;-52
2023/04/22 04:22:19;;;;;;;12.43;6.10;;;;;;;;;;4982238;28;20066;-51
2023/04/22 04:24:54;;;;;;;11.48;6.55;;;;;;;;;;4981456;28;20030;-57
2023/04/22 04:27:22;;;;;;;11.15;6.35;;;;;;;;;;4979850;28;20042;-56
2023/04/22 04:29:51;;;;;;;7.22;5.30;;;;;;;;;;4977636;28;20026;-52
2023/04/22 04:32:32;;;;;;;7.95;5.30;;;;;;;;;;4976295;28;20117;-51
2023/04/22 04:34:58;;;;;;;7.53;5.88;;;;;;;;;;4993764;28;20053;-55
2023/04/22 04:37:25;;;;;;;10.77;5.82;;;;;;;;;;4983914;28;20510;-51
2023/04/22 04:40:06;;;;;;;10.20;6.45;;;;;;;;;;4983872;28;20550;-48
2023/04/22 04:42:44;;;;;;;9.82;6.15;;;;;;;;;;4983269;28;20034;-50
2023/04/22 04:45:16;;;;;;;7.72;5.55;;;;;;;;;;4988683;28;20029;-50
2023/04/22 04:47:42;;;;;;;8.10;6.03;;;;;;;;;;4979695;28;20477;-52
2023/04/22 04:50:21;;;;;;;7.97;5.35;;;;;;;;;;4982286;28;20034;-55
2023/04/22 04:52:48;;;;;;;8.13;6.20;;;;;;;;;;4994527;28;20043;-55
2023/04/22 04:55:14;;;;;;;7.97;5.33;;;;;;;;;;4980593;28;20037;-57
2023/04/22 04:57:40;;;;;;;10.88;6.05;;;;;;;;;;4993897;28;20109;-55
2023/04/22 05:00:07;;;;;;;7.82;5.50;;;;;;;;;;4998636;28;20065;-54
2023/04/22 05:02:32;;;;;;;13.73;7.40;;;;;;;;;;4984289;28;20377;-55
2023/04/22 05:04:57;;;;;;;14.35;7.70;;;;;;;;;;4993089;28;20486;-57
2023/04/22 05:07:23;;;;;;;16.38;8.77;;;;;;;;;;4991396;28;20480;-54
2023/04/22 05:09:52;;;;;;;18.58;9.20;;;;;;;;;;4976951;28;20414;-56
2023/04/22 05:12:18;;;;;;;18.02;8.70;;;;;;;;;;4982351;28;20038;-55
2023/04/22 05:14:45;;;;;;;13.02;7.63;;;;;;;;;;4974918;28;20037;-52
2023/04/22 05:17:11;;;;;;;12.25;7.70;;;;;;;;;;4992512;28;20039;-59
2023/04/22 05:19:37;;;;;;;13.48;7.45;;;;;;;;;;4983021;28;20129;-56
2023/04/22 05:22:02;;;;;;;11.90;7.25;;;;;;;;;;4985675;28;20924;-56
2023/04/22 05:24:28;;;;;;;10.35;5.72;;;;;;;;;;4984420;28;20041;-54
2023/04/22 05:26:56;;;;;;;7.30;4.72;;;;;;;;;;4983665;28;20468;-54
2023/04/22 05:29:21;;;;;;;7.28;4.70;;;;;;;;;;4978789;28;20042;-56
2023/04/22 05:31:47;;;;;;;8.00;5.50;;;;;;;;;;4978851;28;20045;-56
2023/04/22 05:34:12;;;;;;;10.25;5.70;;;;;;;;;;4984358;28;20033;-54
2023/04/22 05:36:38;;;;;;;9.18;5.55;;;;;;;;;;4980121;28;20035;-57
2023/04/22 05:39:03;;;;;;;9.57;6.00;;;;;;;;;;4977923;28;20043;-55
2023/04/22 05:41:30;;;;;;;10.60;6.30;;;;;;;;;;4983620;28;20381;-55
2023/04/22 05:43:57;;;;;;;7.63;5.50;;;;;;;;;;4978662;28;20062;-55
2023/04/22 05:46:23;;;;;;;9.93;6.05;;;;;;;;;;4977361;28;20074;-55
2023/04/22 05:48:49;;;;;;;10.35;6.05;;;;;;;;;;4982743;28;20132;-56
2023/04/22 05:51:43;;;;;;;7.20;5.32;;;;;;;;;;4951005;28;20515;-54
2023/04/22 05:54:11;;;;;;;9.30;6.97;;;;;;;;;;4985075;28;20034;-57
2023/04/22 05:56:36;;;;;;;11.02;6.97;;;;;;;;;;4976708;28;20389;-57
2023/04/22 05:59:02;;;;;;;11.45;7.70;;;;;;;;;;4982450;28;20030;-58
2023/04/22 06:01:27;;;;;;;11.00;7.80;;;;;;;;;;4977394;28;20484;-54
2023/04/22 06:04:03;;;;;;;13.27;7.85;;;;;;;;;;4983320;28;20050;-55
2023/04/22 06:06:30;;;;;;;13.85;7.70;;;;;;;;;;4976616;28;20061;-55
2023/04/22 06:08:55;;;;;;;10.85;7.07;;;;;;;;;;4977689;28;20472;-57
2023/04/22 06:11:20;;;;;;;8.88;6.50;;;;;;;;;;4976169;28;20088;-55
2023/04/22 06:13:46;;;;;;;10.57;6.22;;;;;;;;;;4982523;28;20037;-57
2023/04/22 06:16:11;;;;;;;10.85;6.18;;;;;;;;;;4979934;28;20037;-56
2023/04/22 06:18:36;;;;;;;11.43;5.88;;;;;;;;;;4977595;28;20084;-58
2023/04/22 06:21:02;;;;;;;9.65;6.30;;;;;;;;;;4977648;28;20077;-56
2023/04/22 06:23:28;;;;;;;9.27;6.18;;;;;;;;;;4979518;28;20084;-55
2023/04/22 06:25:53;;;;;;;10.10;6.82;;;;;;;;;;4983299;28;20030;-57
2023/04/22 06:28:19;;;;;;;8.43;5.72;;;;;;;;;;4985165;28;20037;-53
2023/04/22 06:30:47;;;;;;;8.63;6.22;;;;;;;;;;4977872;28;20138;-57
2023/04/22 06:33:13;;;;;;;14.55;7.05;;;;;;;;;;4982420;28;20148;-56
2023/04/22 06:35:39;;;;;;;12.98;7.20;;;;;;;;;;4983598;28;20026;-58
2023/04/22 06:38:04;;;;;;;16.52;9.00;;;;;;;;;;4979402;28;20078;-53
2023/04/22 06:40:37;;;;;;;9.48;6.72;;;;;;;;;;4984267;28;20038;-56
2023/04/22 06:43:12;;;;;;;9.60;6.15;;;;;;;;;;4983704;28;20081;-56
2023/04/22 06:45:57;;;;;;;7.65;5.80;;;;;;;;;;4978401;28;20042;-58
2023/04/22 06:48:33;;;;;;;8.60;5.50;;;;;;;;;;4981618;28;20038;-58
2023/04/22 06:51:17;;;;;;;9.43;5.78;;;;;;;;;;4976643;28;20109;-55
2023/04/22 06:53:43;;;;;;;9.67;6.03;;;;;;;;;;4982452;28;20555;-56
2023/04/22 06:56:12;;;;;;;9.30;6.50;;;;;;;;;;4980240;28;20816;-55
2023/04/22 06:58:37;;;;;;;12.02;6.20;;;;;;;;;;4976701;28;20039;-57
2023/04/22 07:01:02;;;;;;;8.40;5.32;;;;;;;;;;4980884;28;20110;-57
2023/04/22 07:03:28;;;;;;;13.52;6.25;;;;;;;;;;4982465;28;20500;-56
2023/04/22 07:06:02;;;;;;;10.50;6.22;;;;;;;;;;4976154;28;20037;-50
2023/04/22 07:08:29;;;;;;;10.63;6.45;;;;;;;;;;4982851;28;20034;-59
2023/04/22 07:10:56;;;;;;;11.35;6.20;;;;;;;;;;4978272;28;20077;-53
2023/04/22 07:13:32;;;;;;;11.15;5.88;;;;;;;;;;4978405;28;20065;-57
2023/04/22 07:15:58;;;;;;;7.90;5.00;;;;;;;;;;4977713;28;20046;-54
2023/04/22 07:18:24;;;;;;;9.00;4.93;;;;;;;;;;4973217;28;20034;-58
2023/04/22 07:20:49;;;;;;;6.70;4.60;;;;;;;;;;4978292;28;20488;-59
2023/04/22 07:23:17;;;;;;;5.75;4.07;;;;;;;;;;4977858;28;20037;-57
2023/04/22 07:25:43;;;;;;;8.63;4.57;;;;;;;;;;4978220;28;20090;-54
2023/04/22 07:28:08;;;;;;;8.07;4.50;;;;;;;;;;4977866;28;20125;-56
2023/04/22 07:30:33;;;;;;;6.95;4.47;;;;;;;;;;4978853;28;20388;-58
2023/04/22 07:32:58;;;;;;;6.38;4.20;;;;;;;;;;4972850;28;20042;-57
2023/04/22 07:35:24;;;;;;;6.72;4.50;;;;;;;;;;4981814;28;20085;-58
2023/04/22 07:37:49;;;;;;;6.72;4.75;;;;;;;;;;4991340;28;20065;-56
2023/04/22 07:40:15;;;;;;;6.40;3.90;;;;;;;;;;4977776;28;20050;-55
2023/04/22 07:42:40;;;;;;;11.40;4.15;;;;;;;;;;4977769;28;20351;-58
2023/04/22 07:45:06;;;;;;;6.40;3.50;;;;;;;;;;4983593;28;20121;-55
2023/04/22 07:47:31;;;;;;;7.82;3.80;;;;;;;;;;4974239;28;20081;-56
2023/04/22 07:49:56;;;;;;;5.80;3.42;;;;;;;;;;4977294;28;20035;-55
2023/04/22 07:52:22;;;;;;;4.30;2.63;;;;;;;;;;4979518;28;20033;-55
2023/04/22 07:54:47;;;;;;;4.70;2.95;;;;;;;;;;4978174;28;20127;-53
2023/04/22 07:57:12;;;;;;;4.70;2.67;;;;;;;;;;4976398;28;20038;-59
2023/04/22 07:59:38;;;;;;;4.90;2.30;;;;;;;;;;4975609;28;20035;-57
2023/04/22 08:02:03;;;;;;;3.92;2.28;;;;;;;;;;4976409;28;20074;-55
2023/04/22 08:04:28;;;;;;;3.08;2.20;;;;;;;;;;4978732;28;20027;-58
2023/04/22 08:06:54;;;;;;;4.07;2.50;;;;;;;;;;4977595;28;20046;-55
2023/04/22 08:09:20;;;;;;;4.57;2.30;;;;;;;;;;4978921;28;20062;-55
2023/04/22 08:11:45;;;;;;;7.07;2.80;;;;;;;;;;4982232;28;20133;-56
2023/04/22 08:14:10;;;;;;;3.78;2.35;;;;;;;;;;4980689;28;20108;-57
2023/04/22 08:16:36;;;;;;;4.13;2.47;;;;;;;;;;4971843;28;20508;-56
2023/04/22 08:19:01;;;;;;;25.67;9.30;;;;;;;;;;4968533;28;20064;-56
2023/04/22 08:21:27;;;;;;;7.38;3.80;;;;;;;;;;4979632;28;20029;-56
2023/04/22 08:23:53;;;;;;;3.90;2.50;;;;;;;;;;4979403;28;20022;-56
2023/04/22 08:26:19;;;;;;;5.00;2.30;;;;;;;;;;4970415;28;20034;-58
2023/04/22 08:28:44;;;;;;;3.78;2.15;;;;;;;;;;4981582;28;20042;-57
2023/04/22 08:31:11;;;;;;;3.85;2.33;;;;;;;;;;4973633;28;20039;-55
2023/04/22 08:33:36;;;;;;;;;;;;;;;;;;4971466;28;20117;-55
2023/04/22 08:36:02;;;;;;;3.40;2.13;;;;;;;;;;4978457;28;19996;-55
2023/04/22 08:38:28;;;;;;;3.85;2.08;;;;;;;;;;4977653;28;20093;-55
2023/04/22 08:40:54;;;;;;;4.22;2.22;;;;;;;;;;4976893;28;20088;-56
2023/04/22 08:43:20;;;;;;;3.67;2.13;;;;;;;;;;4972166;28;20026;-53
2023/04/22 08:45:46;;;;;;;3.15;1.92;;;;;;;;;;4967866;28;20357;-56
2023/04/22 08:48:12;;;;;;;3.60;2.17;;;;;;;;;;4975626;28;20030;-56
2023/04/22 08:50:40;;;;;;;4.47;2.15;;;;;;;;;;4969918;28;20077;-57
2023/04/22 08:53:05;;;;;;;3.38;2.22;;;;;;;;;;4979165;28;20038;-56
2023/04/22 08:55:31;;;;;;;5.45;2.40;;;;;;;;;;4970762;28;20019;-57
2023/04/22 08:57:59;;;;;;;4.18;2.10;;;;;;;;;;4972927;28;20444;-57
2023/04/22 09:00:24;;;;;;;3.08;2.10;;;;;;;;;;4980244;28;20129;-56
2023/04/22 09:02:50;;;;;;;4.03;2.40;;;;;;;;;;4972179;28;20047;-55
2023/04/22 09:05:16;;;;;;;3.33;2.00;;;;;;;;;;4977256;28;20031;-56
2023/04/22 09:07:42;;;;;;;3.85;1.90;;;;;;;;;;4972594;28;20046;-54
2023/04/22 09:10:07;;;;;;;3.25;2.03;;;;;;;;;;4972528;28;20053;-54
2023/04/22 09:12:33;;;;;;;3.85;2.00;;;;;;;;;;4977953;28;20134;-57
2023/04/22 09:14:58;;;;;;;2.85;1.90;;;;;;;;;;4970524;28;20101;-59
2023/04/22 09:17:30;;;;;;;2.90;1.90;;;;;;;;;;4982313;28;20103;-56
2023/04/22 09:19:57;;;;;;;5.45;2.55;;;;;;;;;;4979085;28;20030;-59
2023/04/22 09:22:23;;;;;;;;;;;;;;;;;;4973036;28;20034;-57
2023/04/22 09:24:49;;;;;;;3.10;1.90;;;;;;;;;;4981078;28;19995;-56
2023/04/22 09:27:16;;;;;;;2.90;1.80;;;;;;;;;;4973468;28;20156;-56
2023/04/22 09:29:46;;;;;;;3.30;1.87;;;;;;;;;;4973357;28;20034;-55
2023/04/22 09:32:12;;;;;;;4.50;2.10;;;;;;;;;;4977826;28;20323;-53
2023/04/22 09:34:53;;;;;;;3.58;1.83;;;;;;;;;;4971291;28;20112;-55
2023/04/22 09:37:20;;;;;;;4.53;2.00;;;;;;;;;;4976288;28;20480;-56
2023/04/22 09:39:47;;;;;;;6.28;2.20;;;;;;;;;;4971610;28;20101;-60
2023/04/22 09:42:12;;;;;;;3.20;1.88;;;;;;;;;;4971973;28;20033;-53
2023/04/22 09:44:37;;;;;;;2.65;1.63;;;;;;;;;;4975721;28;20026;-56
2023/04/22 09:47:03;;;;;;;3.15;1.90;;;;;;;;;;4971131;28;20401;-56
2023/04/22 09:49:28;;;;;;;11.10;1.98;;;;;;;;;;4979544;28;20454;-56
2023/04/22 09:51:55;;;;;;;5.95;2.00;;;;;;;;;;4974660;28;20592;-58
2023/04/22 09:54:22;;;;;;;2.60;1.58;;;;;;;;;;4970437;28;20141;-51
2023/04/22 09:56:47;;;;;;;;;;;;;;;;;;4976158;28;20034;-54
2023/04/22 09:59:33;;;;;;;2.40;1.80;;;;;;;;;;4974228;28;20255;-55
2023/04/22 10:01:59;;;;;;;3.20;2.00;;;;;;;;;;4967668;28;20047;-53
2023/04/22 10:04:25;;;;;;;3.75;2.00;;;;;;;;;;4976273;28;20423;-60
2023/04/22 10:06:51;;;;;;;4.63;1.77;;;;;;;;;;4970883;28;20026;-58
2023/04/22 10:09:18;;;;;;;3.63;2.00;;;;;;;;;;4975380;28;20046;-59
2023/04/22 10:11:44;;;;;;;2.63;1.73;;;;;;;;;;4971257;28;20478;-56
2023/04/22 10:14:10;;;;;;;4.40;1.88;;;;;;;;;;4969889;28;20022;-59
2023/04/22 10:16:37;;;;;;;2.40;1.75;;;;;;;;;;4974600;28;20491;-58
2023/04/22 10:19:04;;;;;;;8.40;2.25;;;;;;;;;;4968866;28;20037;-57
2023/04/22 10:21:30;;;;;;;3.50;1.85;;;;;;;;;;4978694;28;20035;-57
2023/04/22 10:23:57;;;;;;;3.92;1.85;;;;;;;;;;4971367;28;20022;-57
2023/04/22 10:26:58;;;;;;;9.20;1.90;;;;;;;;;;4971333;28;20169;-57
2023/04/22 10:29:24;;;;;;;5.35;2.05;;;;;;;;;;4920992;29;20031;-58
2023/04/22 10:31:54;;;;;;;3.08;1.80;;;;;;;;;;4972992;28;20555;-57
2023/04/22 10:34:19;;;;;;;3.63;2.17;;;;;;;;;;4969970;28;20073;-57
2023/04/22 10:36:52;;;;;;;3.78;2.08;;;;;;;;;;4977632;28;20129;-56
2023/04/22 10:39:17;;;;;;;5.05;2.20;;;;;;;;;;4968781;28;20053;-57
2023/04/22 10:41:49;;;;;;;3.95;2.03;;;;;;;;;;4976254;28;20039;-55
2023/04/22 10:44:14;;;;;;;7.53;2.70;;;;;;;;;;4969730;28;20102;-57
2023/04/22 10:46:41;;;;;;;6.60;2.40;;;;;;;;;;4970881;28;20121;-57
2023/04/22 10:49:07;;;;;;;28.48;7.78;;;;;;;;;;4978280;28;20039;-57
2023/04/22 10:51:39;;;;;;;5.53;1.80;;;;;;;;;;4969713;28;20027;-58
2023/04/22 10:54:04;;;;;;;8.60;2.05;;;;;;;;;;4974726;28;20097;-54
2023/04/22 10:56:29;;;;;;;4.13;2.13;;;;;;;;;;4971107;28;20019;-56
2023/04/22 10:58:55;;;;;;;6.23;2.23;;;;;;;;;;4970259;28;20030;-60
2023/04/22 11:01:20;;;;;;;6.10;2.10;;;;;;;;;;4973157;28;20117;-57
2023/04/22 11:03:45;;;;;;;5.37;2.10;;;;;;;;;;4971581;28;20014;-59
2023/04/22 11:06:18;;;;;;;5.90;2.00;;;;;;;;;;4977395;28;21136;-58
2023/04/22 11:09:06;;;;;;;2.90;1.80;;;;;;;;;;4966910;28;20026;-57
2023/04/22 11:11:31;;;;;;;4.63;2.13;;;;;;;;;;4968142;28;20043;-58
2023/04/22 11:13:56;;;;;;;5.40;2.70;;;;;;;;;;4973156;28;20030;-55
2023/04/22 11:16:22;;;;;;;3.90;2.10;;;;;;;;;;4971377;28;20399;-58
2023/04/22 11:18:47;;;;;;;3.50;2.10;;;;;;;;;;4967901;28;20031;-57
2023/04/22 11:21:13;;;;;;;3.83;2.13;;;;;;;;;;4990693;28;20664;-56
2023/04/22 11:23:38;;;;;;;4.27;2.10;;;;;;;;;;4972121;28;20026;-58
2023/04/22 11:26:04;;;;;;;3.90;2.00;;;;;;;;;;4977301;28;20046;-56
2023/04/22 11:28:30;;;;;;;4.10;2.08;;;;;;;;;;4971905;28;20042;-56
2023/04/22 11:31:02;;;;;;;3.50;1.80;;;;;;;;;;4971151;28;20033;-56
2023/04/22 11:33:28;;;;;;;5.28;2.13;;;;;;;;;;4973551;28;20070;-55
2023/04/22 11:35:54;;;;;;;4.30;2.00;;;;;;;;;;4973062;28;20125;-56
2023/04/22 11:38:19;;;;;;;4.47;2.08;;;;;;;;;;4974152;28;20829;-58
2023/04/22 11:40:45;;;;;;;5.00;2.23;;;;;;;;;;4967418;28;20037;-60
2023/04/22 11:43:10;;;;;;;4.10;2.17;;;;;;;;;;4967275;28;20066;-56
2023/04/22 11:45:39;;;;;;;5.83;2.20;;;;;;;;;;4975680;28;20042;-56
2023/04/22 11:48:06;;;;;;;5.13;1.90;;;;;;;;;;4967051;28;20132;-58
2023/04/22 11:50:33;;;;;;;7.85;2.10;;;;;;;;;;4975759;28;20030;-58
2023/04/22 11:53:00;;;;;;;4.20;2.10;;;;;;;;;;4969709;28;20076;-58
2023/04/22 11:55:29;;;;;;;4.55;2.03;;;;;;;;;;4971359;28;20022;-56
2023/04/22 11:57:54;;;;;;;12.07;3.28;;;;;;;;;;4971540;28;20480;-62
2023/04/22 12:00:20;;;;;;;4.67;2.20;;;;;;;;;;4967959;28;20049;-56
2023/04/22 12:02:58;;;;;;;21.27;4.70;;;;;;;;;;4973636;28;20039;-59
2023/04/22 12:05:37;;;;;;;5.25;2.20;;;;;;;;;;4970408;28;20031;-56
2023/04/22 12:08:07;;;;;;;4.50;1.98;;;;;;;;;;4971175;28;20070;-54
2023/04/22 12:10:33;;;;;;;4.80;1.90;;;;;;;;;;4973142;28;20105;-58
2023/04/22 12:12:59;;;;;;;10.30;2.50;;;;;;;;;;4970711;28;20447;-56
2023/04/22 12:15:24;;;;;;;5.63;2.45;;;;;;;;;;4971691;28;20058;-54
2023/04/22 12:17:50;;;;;;;8.73;2.47;;;;;;;;;;4972852;28;20154;-58
2023/04/22 12:20:15;;;;;;;5.65;2.80;;;;;;;;;;4966906;28;20026;-60
2023/04/22 12:22:41;;;;;;;6.93;2.43;;;;;;;;;;4977448;28;20118;-57
2023/04/22 12:25:09;;;;;;;4.45;2.30;;;;;;;;;;4962846;28;20026;-60
2023/04/22 12:27:34;;;;;;;4.17;1.90;;;;;;;;;;4967239;28;20050;-57
2023/04/22 12:30:00;;;;;;;5.17;2.10;;;;;;;;;;4973571;28;20494;-57
2023/04/22 12:32:26;;;;;;;3.92;2.33;;;;;;;;;;4968770;28;20019;-58
2023/04/22 12:34:51;;;;;;;4.43;2.13;;;;;;;;;;4975169;28;20452;-58
2023/04/22 12:37:17;;;;;;;4.13;2.07;;;;;;;;;;4966203;28;20104;-59
2023/04/22 12:39:43;;;;;;;5.78;2.20;;;;;;;;;;4984432;28;20062;-52
2023/04/22 12:42:08;;;;;;;8.25;2.00;;;;;;;;;;4976631;28;20105;-56
2023/04/22 12:44:34;;;;;;;4.63;2.23;;;;;;;;;;4968620;28;20022;-56
2023/04/22 12:46:59;;;;;;;5.13;2.37;;;;;;;;;;4974437;28;20042;-57
2023/04/22 12:49:25;;;;;;;6.60;2.40;;;;;;;;;;4969585;28;20033;-58
2023/04/22 12:51:51;;;;;;;5.33;2.33;;;;;;;;;;4968946;28;20047;-57
2023/04/22 12:54:19;;;;;;;4.45;2.20;;;;;;;;;;4980109;28;20039;-55
2023/04/22 12:56:45;;;;;;;4.43;2.47;;;;;;;;;;4974991;28;20089;-58
2023/04/22 12:59:10;;;;;;;4.63;2.20;;;;;;;;;;4976301;28;20079;-60
2023/04/22 13:01:35;;;;;;;5.93;2.30;;;;;;;;;;4970616;28;20073;-56
2023/04/22 13:04:04;;;;;;;5.53;2.03;;;;;;;;;;4971825;28;20453;-57
2023/04/22 13:06:30;;;;;;;4.43;2.50;;;;;;;;;;4976237;28;20046;-54
2023/04/22 13:08:55;;;;;;;5.43;2.17;;;;;;;;;;4974645;28;20027;-52
2023/04/22 13:11:20;;;;;;;5.23;2.20;;;;;;;;;;4991159;28;20034;-55
2023/04/22 13:13:46;;;;;;;5.53;2.23;;;;;;;;;;4972473;28;20019;-53
2023/04/22 13:16:11;;;;;;;4.60;2.20;;;;;;;;;;4972517;28;20030;-55
2023/04/22 13:18:36;;;;;;;3.40;2.20;;;;;;;;;;4981026;28;20038;-56
2023/04/22 13:21:02;;;;;;;4.53;2.37;;;;;;;;;;4971191;28;20122;-54
2023/04/22 13:23:27;;;;;;;7.07;2.20;;;;;;;;;;4978037;28;20544;-58
2023/04/22 13:25:52;;;;;;;8.20;2.30;;;;;;;;;;4968936;28;20037;-58
2023/04/22 13:28:18;;;;;;;5.40;2.40;;;;;;;;;;4970562;28;20495;-54
2023/04/22 13:30:43;;;;;;;3.47;2.23;;;;;;;;;;4976255;28;20041;-62
2023/04/22 13:33:09;;;;;;;5.90;2.30;;;;;;;;;;4971549;28;20566;-58
2023/04/22 13:35:34;;;;;;;4.53;2.13;;;;;;;;;;4977459;28;20100;-57
2023/04/22 13:38:00;;;;;;;5.57;2.60;;;;;;;;;;4969360;28;20051;-57
2023/04/22 13:40:26;;;;;;;5.07;2.13;;;;;;;;;;4969648;28;20034;-57
2023/04/22 13:42:51;;;;;;;5.23;2.50;;;;;;;;;;4975567;28;20030;-57
2023/04/22 13:45:16;;;;;;;7.10;2.50;;;;;;;;;;4971893;28;20026;-57
2023/04/22 13:47:42;;;;;;;4.73;2.00;;;;;;;;;;4978443;28;20026;-57
2023/04/22 13:50:07;;;;;;;5.27;2.40;;;;;;;;;;4973096;28;20026;-56
2023/04/22 13:52:33;;;;;;;6.53;2.27;;;;;;;;;;4971698;28;20712;-58
2023/04/22 13:54:59;;;;;;;5.93;2.70;;;;;;;;;;4976918;28;20041;-55
2023/04/22 13:57:24;;;;;;;4.57;2.37;;;;;;;;;;4972775;28;20038;-56
2023/04/22 13:59:50;;;;;;;6.73;3.07;;;;;;;;;;4976493;28;20054;-60
2023/04/22 14:02:15;;;;;;;4.20;2.43;;;;;;;;;;4972902;28;20419;-54
2023/04/22 14:04:40;;;;;;;7.20;2.43;;;;;;;;;;4968851;28;20035;-58
2023/04/22 14:07:05;;;;;;;4.20;2.43;;;;;;;;;;4974150;28;20053;-59
2023/04/22 14:09:31;;;;;;;4.77;2.63;;;;;;;;;;4968781;28;20034;-53
2023/04/22 14:11:57;;;;;;;7.17;3.30;;;;;;;;;;4975140;28;20029;-57
2023/04/22 14:14:22;;;;;;;5.70;2.90;;;;;;;;;;4978938;28;20066;-58
2023/04/22 14:16:47;;;;;;;7.00;2.90;;;;;;;;;;4969383;28;20104;-60
2023/04/22 14:19:14;;;;;;;7.30;2.80;;;;;;;;;;4975590;28;20190;-56
2023/04/22 14:21:39;;;;;;;6.07;2.90;;;;;;;;;;4971761;28;20027;-53
2023/04/22 14:24:05;;;;;;;4.77;2.53;;;;;;;;;;4972079;28;20043;-54
2023/04/22 14:26:31;;;;;;;7.87;2.97;;;;;;;;;;4971824;28;20381;-55
2023/04/22 14:28:57;;;;;;;6.40;2.63;;;;;;;;;;4971518;28;20034;-56
2023/04/22 14:31:23;;;;;;;6.17;2.80;;;;;;;;;;4979145;28;20053;-56
2023/04/22 14:33:48;;;;;;;8.82;2.97;;;;;;;;;;4969183;28;20049;-56
2023/04/22 14:36:14;;;;;;;6.53;3.17;;;;;;;;;;4985912;28;20049;-58
2023/04/22 14:38:40;;;;;;;7.93;3.23;;;;;;;;;;4975948;28;20113;-54